sensor_id;sensor_type;location;lat;lon;timestamp;pressure;altitude;pressure_sealevel;temperature;humidity
70909;BME280;58554;52.006;5.926;2023-01-28T00:01:31;102101.31;;;1.40;83.10
70909;BME280;58554;52.006;5.926;2023-01-28T00:03:58;102106.53;;;1.40;83.29
70909;BME280;58554;52.006;5.926;2023-01-28T00:06:25;102112.59;;;1.40;83.06
70909;BME280;58554;52.006;5.926;2023-01-28T00:08:51;102103.91;;;1.40;82.97
70909;BME280;58554;52.006;5.926;2023-01-28T00:11:21;102111.75;;;1.40;82.97
70909;BME280;58554;52.006;5.926;2023-01-28T00:13:50;102095.19;;;1.39;82.82
70909;BME280;58554;52.006;5.926;2023-01-28T00:16:17;102102.16;;;1.37;82.92
70909;BME280;58554;52.006;5.926;2023-01-28T00:18:44;102098.69;;;1.37;82.94
70909;BME280;58554;52.006;5.926;2023-01-28T00:21:12;102099.53;;;1.37;83.10
70909;BME280;58554;52.006;5.926;2023-01-28T00:23:42;102091.72;;;1.37;83.19
70909;BME280;58554;52.006;5.926;2023-01-28T00:26:13;102090.88;;;1.38;83.11
70909;BME280;58554;52.006;5.926;2023-01-28T00:28:43;102093.50;;;1.40;82.96
70909;BME280;58554;52.006;5.926;2023-01-28T00:31:13;102087.41;;;1.41;83.11
70909;BME280;58554;52.006;5.926;2023-01-28T00:33:41;102092.63;;;1.42;83.14
70909;BME280;58554;52.006;5.926;2023-01-28T00:36:10;102102.19;;;1.42;83.08
70909;BME280;58554;52.006;5.926;2023-01-28T00:38:37;102103.03;;;1.39;83.02
70909;BME280;58554;52.006;5.926;2023-01-28T00:41:07;102107.38;;;1.40;82.93
70909;BME280;58554;52.006;5.926;2023-01-28T00:43:35;102102.16;;;1.36;82.92
70909;BME280;58554;52.006;5.926;2023-01-28T00:46:06;102115.19;;;1.36;83.13
70909;BME280;58554;52.006;5.926;2023-01-28T00:48:33;102105.63;;;1.33;82.99
70909;BME280;58554;52.006;5.926;2023-01-28T00:51:00;102113.44;;;1.32;83.10
70909;BME280;58554;52.006;5.926;2023-01-28T00:53:28;102114.31;;;1.29;83.41
70909;BME280;58554;52.006;5.926;2023-01-28T00:55:55;102111.69;;;1.28;83.37
70909;BME280;58554;52.006;5.926;2023-01-28T00:58:21;102112.56;;;1.25;83.43
70909;BME280;58554;52.006;5.926;2023-01-28T01:00:48;102109.06;;;1.25;83.50
70909;BME280;58554;52.006;5.926;2023-01-28T01:03:18;102119.50;;;1.25;83.36
70909;BME280;58554;52.006;5.926;2023-01-28T01:05:45;102108.22;;;1.21;83.29
70909;BME280;58554;52.006;5.926;2023-01-28T01:08:12;102117.75;;;1.20;83.20
70909;BME280;58554;52.006;5.926;2023-01-28T01:10:39;102117.75;;;1.19;83.35
70909;BME280;58554;52.006;5.926;2023-01-28T01:13:07;102113.41;;;1.18;83.15
70909;BME280;58554;52.006;5.926;2023-01-28T01:15:34;102112.53;;;1.17;83.25
70909;BME280;58554;52.006;5.926;2023-01-28T01:18:00;102112.53;;;1.17;83.14
70909;BME280;58554;52.006;5.926;2023-01-28T01:20:29;102116.88;;;1.18;83.03
70909;BME280;58554;52.006;5.926;2023-01-28T01:22:56;102117.75;;;1.17;83.13
70909;BME280;58554;52.006;5.926;2023-01-28T01:25:23;102126.41;;;1.16;82.93
70909;BME280;58554;52.006;5.926;2023-01-28T01:27:49;102121.22;;;1.13;83.06
70909;BME280;58554;52.006;5.926;2023-01-28T01:30:16;102119.47;;;1.11;83.29
70909;BME280;58554;52.006;5.926;2023-01-28T01:32:43;102125.53;;;1.10;83.18
70909;BME280;58554;52.006;5.926;2023-01-28T01:35:10;102117.72;;;1.07;83.02
70909;BME280;58554;52.006;5.926;2023-01-28T01:37:42;102115.94;;;1.04;82.92
70909;BME280;58554;52.006;5.926;2023-01-28T01:40:10;102109.00;;;1.03;82.82
70909;BME280;58554;52.006;5.926;2023-01-28T01:42:37;102104.69;;;1.05;83.00
70909;BME280;58554;52.006;5.926;2023-01-28T01:45:05;102109.88;;;1.05;82.92
70909;BME280;58554;52.006;5.926;2023-01-28T01:47:42;102109.00;;;1.06;83.09
70909;BME280;58554;52.006;5.926;2023-01-28T01:50:18;102109.00;;;1.06;82.84
70909;BME280;58554;52.006;5.926;2023-01-28T01:52:56;102109.88;;;1.08;82.84
70909;BME280;58554;52.006;5.926;2023-01-28T01:55:30;102113.38;;;1.07;82.43
70909;BME280;58554;52.006;5.926;2023-01-28T01:58:03;102114.25;;;1.09;82.76
70909;BME280;58554;52.006;5.926;2023-01-28T02:00:34;102122.91;;;1.08;82.58
70909;BME280;58554;52.006;5.926;2023-01-28T02:03:01;102122.03;;;1.08;82.27
70909;BME280;58554;52.006;5.926;2023-01-28T02:05:28;102116.81;;;1.06;82.43
70909;BME280;58554;52.006;5.926;2023-01-28T02:07:58;102116.84;;;1.05;82.02
70909;BME280;58554;52.006;5.926;2023-01-28T02:10:25;102122.03;;;1.03;82.28
70909;BME280;58554;52.006;5.926;2023-01-28T02:12:55;102113.34;;;1.02;82.48
70909;BME280;58554;52.006;5.926;2023-01-28T02:15:24;102124.63;;;1.03;82.58
70909;BME280;58554;52.006;5.926;2023-01-28T02:17:52;102125.47;;;1.02;82.31
70909;BME280;58554;52.006;5.926;2023-01-28T02:20:21;102128.09;;;1.00;82.27
70909;BME280;58554;52.006;5.926;2023-01-28T02:29:24;102116.78;;;1.00;82.22
70909;BME280;58554;52.006;5.926;2023-01-28T02:32:03;102121.13;;;0.99;82.36
70909;BME280;58554;52.006;5.926;2023-01-28T02:34:40;102128.09;;;0.99;82.34
70909;BME280;58554;52.006;5.926;2023-01-28T02:37:14;102128.97;;;0.96;82.56
70909;BME280;58554;52.006;5.926;2023-01-28T02:39:48;102135.91;;;0.96;82.43
70909;BME280;58554;52.006;5.926;2023-01-28T02:42:24;102135.91;;;0.96;82.38
70909;BME280;58554;52.006;5.926;2023-01-28T02:44:56;102134.13;;;0.93;82.53
70909;BME280;58554;52.006;5.926;2023-01-28T02:47:23;102120.22;;;0.91;82.65
70909;BME280;58554;52.006;5.926;2023-01-28T02:49:51;102128.94;;;0.90;82.71
70909;BME280;58554;52.006;5.926;2023-01-28T02:52:30;102122.84;;;0.90;82.78
70909;BME280;58554;52.006;5.926;2023-01-28T02:55:14;102122.84;;;0.90;82.76
70909;BME280;58554;52.006;5.926;2023-01-28T02:57:57;102131.50;;;0.89;82.55
70909;BME280;58554;52.006;5.926;2023-01-28T03:00:42;102128.91;;;0.86;82.47
70909;BME280;58554;52.006;5.926;2023-01-28T03:03:21;102132.38;;;0.86;82.47
70909;BME280;58554;52.006;5.926;2023-01-28T03:05:55;102128.91;;;0.86;82.44
70909;BME280;58554;52.006;5.926;2023-01-28T03:08:27;102127.16;;;0.85;82.43
70909;BME280;58554;52.006;5.926;2023-01-28T03:10:57;102134.09;;;0.84;82.50
70909;BME280;58554;52.006;5.926;2023-01-28T03:13:24;102137.56;;;0.85;82.47
70909;BME280;58554;52.006;5.926;2023-01-28T03:15:53;102133.22;;;0.82;82.66
70909;BME280;58554;52.006;5.926;2023-01-28T03:18:22;102131.47;;;0.82;82.72
70909;BME280;58554;52.006;5.926;2023-01-28T03:20:57;102133.22;;;0.80;82.42
70909;BME280;58554;52.006;5.926;2023-01-28T03:23:35;102132.34;;;0.80;82.52
70909;BME280;58554;52.006;5.926;2023-01-28T03:26:08;102136.69;;;0.79;82.42
70909;BME280;58554;52.006;5.926;2023-01-28T03:28:38;102135.81;;;0.80;82.44
70909;BME280;58554;52.006;5.926;2023-01-28T03:31:12;102132.34;;;0.80;82.35
70909;BME280;58554;52.006;5.926;2023-01-28T03:33:43;102120.16;;;0.79;82.37
70909;BME280;58554;52.006;5.926;2023-01-28T03:36:10;102127.97;;;0.79;82.44
70909;BME280;58554;52.006;5.926;2023-01-28T03:38:38;102125.41;;;0.80;82.47
70909;BME280;58554;52.006;5.926;2023-01-28T03:41:09;102112.38;;;0.80;82.47
70909;BME280;58554;52.006;5.926;2023-01-28T03:43:36;102121.06;;;0.79;82.59
70909;BME280;58554;52.006;5.926;2023-01-28T03:46:03;102126.25;;;0.78;82.61
70909;BME280;58554;52.006;5.926;2023-01-28T03:48:32;102127.13;;;0.75;82.73
70909;BME280;58554;52.006;5.926;2023-01-28T03:50:59;102131.44;;;0.73;82.26
70909;BME280;58554;52.006;5.926;2023-01-28T03:53:25;102130.56;;;0.70;82.19
70909;BME280;58554;52.006;5.926;2023-01-28T03:55:53;102137.47;;;0.66;82.17
70909;BME280;58554;52.006;5.926;2023-01-28T03:58:20;102141.78;;;0.64;82.15
70909;BME280;58554;52.006;5.926;2023-01-28T04:00:48;102139.22;;;0.66;82.38
70909;BME280;58554;52.006;5.926;2023-01-28T04:03:16;102141.81;;;0.66;82.33
70909;BME280;58554;52.006;5.926;2023-01-28T04:05:58;102143.56;;;0.65;82.08
70909;BME280;58554;52.006;5.926;2023-01-28T04:08:27;102142.66;;;0.61;81.19
70909;BME280;58554;52.006;5.926;2023-01-28T04:10:53;102146.13;;;0.60;80.88
70909;BME280;58554;52.006;5.926;2023-01-28T04:13:20;102145.22;;;0.60;81.04
70909;BME280;58554;52.006;5.926;2023-01-28T04:15:47;102141.75;;;0.58;80.34
70909;BME280;58554;52.006;5.926;2023-01-28T04:18:14;102132.19;;;0.55;80.52
70909;BME280;58554;52.006;5.926;2023-01-28T04:20:41;102135.69;;;0.54;80.63
70909;BME280;58554;52.006;5.926;2023-01-28T04:23:10;102136.53;;;0.53;80.67
70909;BME280;58554;52.006;5.926;2023-01-28T04:25:36;102132.19;;;0.51;80.78
70909;BME280;58554;52.006;5.926;2023-01-28T04:28:03;102125.22;;;0.50;81.06
70909;BME280;58554;52.006;5.926;2023-01-28T04:30:30;102133.03;;;0.50;80.99
70909;BME280;58554;52.006;5.926;2023-01-28T04:32:56;102149.53;;;0.52;81.35
70909;BME280;58554;52.006;5.926;2023-01-28T04:35:23;102146.94;;;0.50;81.47
70909;BME280;58554;52.006;5.926;2023-01-28T04:37:49;102141.72;;;0.49;81.60
70909;BME280;58554;52.006;5.926;2023-01-28T04:40:18;102145.16;;;0.48;81.72
70909;BME280;58554;52.006;5.926;2023-01-28T04:42:52;102148.66;;;0.48;81.65
70909;BME280;58554;52.006;5.926;2023-01-28T04:45:19;102146.91;;;0.47;81.54
70909;BME280;58554;52.006;5.926;2023-01-28T04:47:46;102152.09;;;0.47;81.69
70909;BME280;58554;52.006;5.926;2023-01-28T04:50:14;102151.22;;;0.47;81.54
70909;BME280;58554;52.006;5.926;2023-01-28T04:52:41;102164.25;;;0.47;81.69
70909;BME280;58554;52.006;5.926;2023-01-28T04:55:08;102165.97;;;0.45;81.62
70909;BME280;58554;52.006;5.926;2023-01-28T04:57:38;102171.16;;;0.45;81.63
70909;BME280;58554;52.006;5.926;2023-01-28T05:00:06;102178.09;;;0.46;81.55
70909;BME280;58554;52.006;5.926;2023-01-28T05:02:35;102172.03;;;0.45;81.32
70909;BME280;58554;52.006;5.926;2023-01-28T05:05:01;102171.16;;;0.45;81.20
70909;BME280;58554;52.006;5.926;2023-01-28T05:07:28;102184.16;;;0.43;81.27
70909;BME280;58554;52.006;5.926;2023-01-28T05:09:54;102168.53;;;0.41;80.72
70909;BME280;58554;52.006;5.926;2023-01-28T05:12:21;102172.84;;;0.39;80.90
70909;BME280;58554;52.006;5.926;2023-01-28T05:14:50;102172.00;;;0.40;80.66
70909;BME280;58554;52.006;5.926;2023-01-28T05:17:16;102163.31;;;0.37;80.83
70909;BME280;58554;52.006;5.926;2023-01-28T05:19:43;102162.41;;;0.33;80.22
70909;BME280;58554;52.006;5.926;2023-01-28T05:22:09;102155.47;;;0.32;80.68
70909;BME280;58554;52.006;5.926;2023-01-28T05:24:36;102164.16;;;0.31;80.51
70909;BME280;58554;52.006;5.926;2023-01-28T05:27:02;102158.91;;;0.28;80.59
70909;BME280;58554;52.006;5.926;2023-01-28T05:29:29;102158.03;;;0.28;80.48
70909;BME280;58554;52.006;5.926;2023-01-28T05:31:58;102149.38;;;0.27;80.79
70909;BME280;58554;52.006;5.926;2023-01-28T05:34:25;102147.63;;;0.26;80.86
70909;BME280;58554;52.006;5.926;2023-01-28T05:36:51;102148.50;;;0.25;80.29
70909;BME280;58554;52.006;5.926;2023-01-28T05:39:17;102155.38;;;0.21;80.50
70909;BME280;58554;52.006;5.926;2023-01-28T05:41:44;102159.72;;;0.21;80.18
70909;BME280;58554;52.006;5.926;2023-01-28T05:44:10;102162.28;;;0.18;80.19
70909;BME280;58554;52.006;5.926;2023-01-28T05:46:37;102151.88;;;0.16;80.14
70909;BME280;58554;52.006;5.926;2023-01-28T05:49:06;102157.06;;;0.16;80.03
70909;BME280;58554;52.006;5.926;2023-01-28T05:51:32;102157.06;;;0.15;80.09
70909;BME280;58554;52.006;5.926;2023-01-28T05:53:59;102159.66;;;0.13;80.02
70909;BME280;58554;52.006;5.926;2023-01-28T05:56:25;102164.84;;;0.13;80.43
70909;BME280;58554;52.006;5.926;2023-01-28T05:58:52;102162.25;;;0.13;80.47
70909;BME280;58554;52.006;5.926;2023-01-28T06:01:18;102168.31;;;0.11;80.52
70909;BME280;58554;52.006;5.926;2023-01-28T06:03:45;102161.38;;;0.11;80.42
70909;BME280;58554;52.006;5.926;2023-01-28T06:06:14;102155.31;;;0.11;80.82
70909;BME280;58554;52.006;5.926;2023-01-28T06:08:40;102159.63;;;0.09;80.51
70909;BME280;58554;52.006;5.926;2023-01-28T06:11:07;102162.22;;;0.09;80.57
70909;BME280;58554;52.006;5.926;2023-01-28T06:13:34;102155.25;;;0.08;80.50
70909;BME280;58554;52.006;5.926;2023-01-28T06:16:01;102157.88;;;0.08;80.46
70909;BME280;58554;52.006;5.926;2023-01-28T06:18:28;102163.94;;;0.07;80.46
70909;BME280;58554;52.006;5.926;2023-01-28T06:20:54;102163.91;;;0.04;80.51
70909;BME280;58554;52.006;5.926;2023-01-28T06:23:23;102160.44;;;0.03;80.51
70909;BME280;58554;52.006;5.926;2023-01-28T06:25:52;102158.66;;;-0.01;80.36
70909;BME280;58554;52.006;5.926;2023-01-28T06:28:19;102164.72;;;-0.01;80.74
70909;BME280;58554;52.006;5.926;2023-01-28T06:30:47;102159.53;;;-0.01;80.67
70909;BME280;58554;52.006;5.926;2023-01-28T06:33:14;102157.81;;;-0.02;80.47
70909;BME280;58554;52.006;5.926;2023-01-28T06:35:40;102161.25;;;-0.01;80.53
70909;BME280;58554;52.006;5.926;2023-01-28T06:38:07;102163.84;;;-0.03;80.42
70909;BME280;58554;52.006;5.926;2023-01-28T06:40:36;102153.44;;;-0.03;80.45
70909;BME280;58554;52.006;5.926;2023-01-28T06:43:03;102162.13;;;-0.01;80.40
70909;BME280;58554;52.006;5.926;2023-01-28T06:45:30;102165.59;;;-0.02;80.42
70909;BME280;58554;52.006;5.926;2023-01-28T06:47:57;102163.00;;;-0.00;80.12
70909;BME280;58554;52.006;5.926;2023-01-28T06:50:24;102166.47;;;0.00;80.43
70909;BME280;58554;52.006;5.926;2023-01-28T06:52:51;102167.31;;;-0.01;80.52
70909;BME280;58554;52.006;5.926;2023-01-28T06:55:18;102175.13;;;-0.02;80.50
70909;BME280;58554;52.006;5.926;2023-01-28T06:57:47;102182.03;;;-0.03;80.35
70909;BME280;58554;52.006;5.926;2023-01-28T07:00:14;102171.63;;;-0.06;80.43
70909;BME280;58554;52.006;5.926;2023-01-28T07:02:41;102167.28;;;-0.05;80.15
70909;BME280;58554;52.006;5.926;2023-01-28T07:05:08;102177.69;;;-0.05;80.03
70909;BME280;58554;52.006;5.926;2023-01-28T07:07:36;102185.47;;;-0.07;80.39
70909;BME280;58554;52.006;5.926;2023-01-28T07:10:03;102193.28;;;-0.07;80.29
70909;BME280;58554;52.006;5.926;2023-01-28T07:12:30;102203.66;;;-0.07;80.33
70909;BME280;58554;52.006;5.926;2023-01-28T07:14:59;102205.38;;;-0.09;80.25
70909;BME280;58554;52.006;5.926;2023-01-28T07:17:26;102197.59;;;-0.10;80.29
70909;BME280;58554;52.006;5.926;2023-01-28T07:19:52;102207.94;;;-0.13;80.53
70909;BME280;58554;52.006;5.926;2023-01-28T07:22:19;102212.28;;;-0.14;80.25
70909;BME280;58554;52.006;5.926;2023-01-28T07:24:45;102212.25;;;-0.15;80.35
70909;BME280;58554;52.006;5.926;2023-01-28T07:27:12;102216.56;;;-0.17;80.12
70909;BME280;58554;52.006;5.926;2023-01-28T07:29:38;102216.56;;;-0.17;80.44
70909;BME280;58554;52.006;5.926;2023-01-28T07:32:07;102218.31;;;-0.16;80.11
70909;BME280;58554;52.006;5.926;2023-01-28T07:34:34;102219.19;;;-0.16;80.09
70909;BME280;58554;52.006;5.926;2023-01-28T07:37:00;102224.41;;;-0.13;80.10
70909;BME280;58554;52.006;5.926;2023-01-28T07:39:27;102218.34;;;-0.13;80.00
70909;BME280;58554;52.006;5.926;2023-01-28T07:41:53;102216.59;;;-0.13;80.03
70909;BME280;58554;52.006;5.926;2023-01-28T07:44:20;102214.91;;;-0.12;79.84
70909;BME280;58554;52.006;5.926;2023-01-28T07:46:46;102208.84;;;-0.10;80.27
70909;BME280;58554;52.006;5.926;2023-01-28T07:49:15;102219.28;;;-0.07;80.27
70909;BME280;58554;52.006;5.926;2023-01-28T07:51:42;102224.53;;;-0.04;80.47
70909;BME280;58554;52.006;5.926;2023-01-28T07:54:08;102228.84;;;-0.03;80.38
70909;BME280;58554;52.006;5.926;2023-01-28T07:56:35;102233.19;;;-0.00;80.37
70909;BME280;58554;52.006;5.926;2023-01-28T07:59:02;102232.34;;;0.01;80.41
70909;BME280;58554;52.006;5.926;2023-01-28T08:01:28;102227.13;;;-0.01;80.32
70909;BME280;58554;52.006;5.926;2023-01-28T08:03:55;102243.63;;;0.01;80.28
70909;BME280;58554;52.006;5.926;2023-01-28T08:06:24;102250.56;;;0.04;80.35
70909;BME280;58554;52.006;5.926;2023-01-28T08:08:53;102248.88;;;0.05;80.67
70909;BME280;58554;52.006;5.926;2023-01-28T08:11:19;102254.06;;;0.06;80.48
70909;BME280;58554;52.006;5.926;2023-01-28T08:13:47;102256.69;;;0.08;80.45
70909;BME280;58554;52.006;5.926;2023-01-28T08:16:15;102252.38;;;0.10;80.51
70909;BME280;58554;52.006;5.926;2023-01-28T08:18:41;102254.13;;;0.11;80.52
70909;BME280;58554;52.006;5.926;2023-01-28T08:21:08;102251.53;;;0.11;80.32
70909;BME280;58554;52.006;5.926;2023-01-28T08:23:37;102249.81;;;0.11;80.51
70909;BME280;58554;52.006;5.926;2023-01-28T08:26:04;102254.13;;;0.12;80.11
70909;BME280;58554;52.006;5.926;2023-01-28T08:28:30;102256.75;;;0.11;80.06
70909;BME280;58554;52.006;5.926;2023-01-28T08:30:58;102260.22;;;0.13;80.10
70909;BME280;58554;52.006;5.926;2023-01-28T08:33:25;102264.53;;;0.11;80.25
70909;BME280;58554;52.006;5.926;2023-01-28T08:35:51;102264.53;;;0.11;80.08
70909;BME280;58554;52.006;5.926;2023-01-28T08:38:18;102264.53;;;0.09;80.08
70909;BME280;58554;52.006;5.926;2023-01-28T08:40:47;102260.19;;;0.11;80.07
70909;BME280;58554;52.006;5.926;2023-01-28T08:43:14;102261.94;;;0.11;79.93
70909;BME280;58554;52.006;5.926;2023-01-28T08:45:41;102272.34;;;0.11;79.90
70909;BME280;58554;52.006;5.926;2023-01-28T08:48:12;102278.38;;;0.10;80.02
70909;BME280;58554;52.006;5.926;2023-01-28T08:50:40;102275.75;;;0.08;79.96
70909;BME280;58554;52.006;5.926;2023-01-28T08:53:10;102263.63;;;0.07;80.13
70909;BME280;58554;52.006;5.926;2023-01-28T08:55:38;102273.19;;;0.10;80.16
70909;BME280;58554;52.006;5.926;2023-01-28T08:58:11;102277.50;;;0.08;80.13
70909;BME280;58554;52.006;5.926;2023-01-28T09:00:39;102289.66;;;0.10;80.33
70909;BME280;58554;52.006;5.926;2023-01-28T09:03:07;102286.22;;;0.11;80.07
70909;BME280;58554;52.006;5.926;2023-01-28T09:05:34;102274.06;;;0.10;80.07
70909;BME280;58554;52.006;5.926;2023-01-28T09:08:03;102273.22;;;0.11;80.34
70909;BME280;58554;52.006;5.926;2023-01-28T09:10:32;102273.22;;;0.13;80.32
70909;BME280;58554;52.006;5.926;2023-01-28T09:13:03;102278.44;;;0.16;80.20
70909;BME280;58554;52.006;5.926;2023-01-28T09:15:33;102279.34;;;0.18;79.84
70909;BME280;58554;52.006;5.926;2023-01-28T09:17:59;102288.03;;;0.20;79.74
70909;BME280;58554;52.006;5.926;2023-01-28T09:20:26;102301.94;;;0.22;79.76
70909;BME280;58554;52.006;5.926;2023-01-28T09:22:53;102313.25;;;0.26;79.96
70909;BME280;58554;52.006;5.926;2023-01-28T09:25:20;102296.75;;;0.24;79.33
70909;BME280;58554;52.006;5.926;2023-01-28T09:27:46;102295.88;;;0.23;79.62
70909;BME280;58554;52.006;5.926;2023-01-28T09:30:13;102308.88;;;0.25;79.75
70909;BME280;58554;52.006;5.926;2023-01-28T09:32:43;102309.78;;;0.28;80.02
70909;BME280;58554;52.006;5.926;2023-01-28T09:35:10;102314.19;;;0.34;79.95
70909;BME280;58554;52.006;5.926;2023-01-28T09:37:36;102312.47;;;0.37;79.74
70909;BME280;58554;52.006;5.926;2023-01-28T09:40:20;102308.16;;;0.38;79.78
70909;BME280;58554;52.006;5.926;2023-01-28T09:43:05;102309.91;;;0.40;79.96
70909;BME280;58554;52.006;5.926;2023-01-28T09:45:47;102321.19;;;0.41;79.36
70909;BME280;58554;52.006;5.926;2023-01-28T09:48:20;102318.63;;;0.42;79.34
70909;BME280;58554;52.006;5.926;2023-01-28T09:50:51;102320.34;;;0.42;79.27
70909;BME280;58554;52.006;5.926;2023-01-28T09:53:22;102319.50;;;0.45;79.66
70909;BME280;58554;52.006;5.926;2023-01-28T09:55:55;102325.63;;;0.48;79.21
70909;BME280;58554;52.006;5.926;2023-01-28T09:58:25;102326.53;;;0.53;79.47
70909;BME280;58554;52.006;5.926;2023-01-28T10:00:56;102335.25;;;0.60;79.92
70909;BME280;58554;52.006;5.926;2023-01-28T10:03:52;102336.25;;;0.71;79.79
70909;BME280;58554;52.006;5.926;2023-01-28T10:06:43;102327.63;;;0.83;79.94
70909;BME280;58554;52.006;5.926;2023-01-28T10:09:24;102316.44;;;0.92;79.95
70909;BME280;58554;52.006;5.926;2023-01-28T10:12:09;102315.69;;;1.07;80.28
70909;BME280;58554;52.006;5.926;2023-01-28T10:14:57;102327.94;;;1.21;80.53
70909;BME280;58554;52.006;5.926;2023-01-28T10:17:44;102328.03;;;1.37;80.22
70909;BME280;58554;52.006;5.926;2023-01-28T10:20:22;102328.09;;;1.49;80.35
70909;BME280;58554;52.006;5.926;2023-01-28T10:22:55;102318.59;;;1.59;80.34
70909;BME280;58554;52.006;5.926;2023-01-28T10:25:30;102316.91;;;1.70;80.26
70909;BME280;58554;52.006;5.926;2023-01-28T10:28:00;102322.16;;;1.81;79.98
70909;BME280;58554;52.006;5.926;2023-01-28T10:30:30;102317.84;;;1.86;79.76
70909;BME280;58554;52.006;5.926;2023-01-28T10:33:03;102328.31;;;1.94;80.04
70909;BME280;58554;52.006;5.926;2023-01-28T10:35:40;102317.00;;;1.99;79.98
70909;BME280;58554;52.006;5.926;2023-01-28T10:38:13;102315.31;;;2.04;79.68
70909;BME280;58554;52.006;5.926;2023-01-28T10:40:44;102310.06;;;2.01;78.77
70909;BME280;58554;52.006;5.926;2023-01-28T10:43:11;102304.84;;;2.01;78.77
70909;BME280;58554;52.006;5.926;2023-01-28T10:45:41;102309.19;;;2.06;79.14
70909;BME280;58554;52.006;5.926;2023-01-28T10:48:22;102308.34;;;2.14;79.08
70909;BME280;58554;52.006;5.926;2023-01-28T10:50:55;102302.31;;;2.23;78.60
70909;BME280;58554;52.006;5.926;2023-01-28T10:53:34;102292.72;;;2.31;78.76
70909;BME280;58554;52.006;5.926;2023-01-28T10:56:04;102283.19;;;2.44;79.04
70909;BME280;58554;52.006;5.926;2023-01-28T10:58:34;102278.84;;;2.58;78.87
70909;BME280;58554;52.006;5.926;2023-01-28T11:01:11;102282.31;;;2.73;78.54
70909;BME280;58554;52.006;5.926;2023-01-28T11:03:50;102267.50;;;2.84;78.31
70909;BME280;58554;52.006;5.926;2023-01-28T11:06:28;102270.97;;;2.97;78.58
70909;BME280;58554;52.006;5.926;2023-01-28T11:08:55;102270.09;;;3.09;78.09
70909;BME280;58554;52.006;5.926;2023-01-28T11:11:24;102257.88;;;3.17;78.78
70909;BME280;58554;52.006;5.926;2023-01-28T11:13:52;102266.56;;;3.30;78.78
70909;BME280;58554;52.006;5.926;2023-01-28T11:16:20;102263.88;;;3.45;79.00
70909;BME280;58554;52.006;5.926;2023-01-28T11:18:50;102258.59;;;3.59;78.88
70909;BME280;58554;52.006;5.926;2023-01-28T11:21:20;102258.56;;;3.70;78.53
70909;BME280;58554;52.006;5.926;2023-01-28T11:23:55;102240.22;;;3.76;78.47
70909;BME280;58554;52.006;5.926;2023-01-28T11:26:28;102225.34;;;3.81;78.48
70909;BME280;58554;52.006;5.926;2023-01-28T11:28:58;102218.41;;;3.72;77.56
70909;BME280;58554;52.006;5.926;2023-01-28T11:31:25;102201.97;;;3.56;77.67
70909;BME280;58554;52.006;5.926;2023-01-28T11:33:54;102192.44;;;3.40;77.64
70909;BME280;58554;52.006;5.926;2023-01-28T11:36:27;102182.91;;;3.22;77.54
70909;BME280;58554;52.006;5.926;2023-01-28T11:38:56;102182.97;;;3.08;77.35
70909;BME280;58554;52.006;5.926;2023-01-28T11:41:27;102185.59;;;2.96;77.26
70909;BME280;58554;52.006;5.926;2023-01-28T11:43:55;102179.56;;;2.84;77.07
70909;BME280;58554;52.006;5.926;2023-01-28T11:46:40;102170.88;;;2.73;77.40
70909;BME280;58554;52.006;5.926;2023-01-28T11:49:25;102170.03;;;2.65;77.22
70909;BME280;58554;52.006;5.926;2023-01-28T11:52:08;102175.25;;;2.57;77.33
70909;BME280;58554;52.006;5.926;2023-01-28T11:54:52;102172.66;;;2.53;77.17
70909;BME280;58554;52.006;5.926;2023-01-28T11:57:36;102172.63;;;2.56;77.63
70909;BME280;58554;52.006;5.926;2023-01-28T12:00:31;102179.63;;;2.63;77.34
70909;BME280;58554;52.006;5.926;2023-01-28T12:03:18;102184.78;;;2.77;77.33
70909;BME280;58554;52.006;5.926;2023-01-28T12:06:17;102183.03;;;2.94;77.17
70909;BME280;58554;52.006;5.926;2023-01-28T12:09:05;102181.22;;;3.12;76.42
70909;BME280;58554;52.006;5.926;2023-01-28T12:11:53;102194.22;;;3.29;77.43
70909;BME280;58554;52.006;5.926;2023-01-28T12:14:39;102192.41;;;3.44;77.50
70909;BME280;58554;52.006;5.926;2023-01-28T12:17:35;102196.69;;;3.59;77.69
70909;BME280;58554;52.006;5.926;2023-01-28T12:20:21;102205.31;;;3.77;77.33
70909;BME280;58554;52.006;5.926;2023-01-28T12:23:05;102200.00;;;3.89;77.64
70909;BME280;58554;52.006;5.926;2023-01-28T12:25:57;102195.53;;;4.06;77.60
70909;BME280;58554;52.006;5.926;2023-01-28T12:28:43;102193.47;;;4.45;78.55
70909;BME280;58554;52.006;5.926;2023-01-28T12:31:40;102196.00;;;5.37;81.89
70909;BME280;58554;52.006;5.926;2023-01-28T12:37:39;102185.31;;;7.10;80.09
70909;BME280;58554;52.006;5.926;2023-01-28T12:40:35;102186.38;;;7.84;78.37
70909;BME280;58554;52.006;5.926;2023-01-28T12:43:19;102185.44;;;7.87;76.75
70909;BME280;58554;52.006;5.926;2023-01-28T12:45:54;102188.06;;;7.88;76.95
70909;BME280;58554;52.006;5.926;2023-01-28T12:48:31;102201.47;;;8.15;77.09
70909;BME280;58554;52.006;5.926;2023-01-28T12:51:06;102196.78;;;8.26;75.47
70909;BME280;58554;52.006;5.926;2023-01-28T12:53:42;102188.59;;;8.03;73.93
70909;BME280;58554;52.006;5.926;2023-01-28T12:56:17;102184.16;;;7.67;73.50
70909;BME280;58554;52.006;5.926;2023-01-28T12:58:53;102184.78;;;7.35;73.93
70909;BME280;58554;52.006;5.926;2023-01-28T13:01:28;102184.44;;;7.10;72.94
70909;BME280;58554;52.006;5.926;2023-01-28T13:04:05;102178.88;;;6.80;73.24
70909;BME280;58554;52.006;5.926;2023-01-28T13:06:41;102156.59;;;6.53;72.42
70909;BME280;58554;52.006;5.926;2023-01-28T13:09:16;102160.31;;;6.41;73.18
70909;BME280;58554;52.006;5.926;2023-01-28T13:11:46;102169.94;;;6.44;74.51
70909;BME280;58554;52.006;5.926;2023-01-28T13:14:27;102163.13;;;6.79;75.02
70909;BME280;58554;52.006;5.926;2023-01-28T13:16:55;102171.47;;;7.02;74.13
70909;BME280;58554;52.006;5.926;2023-01-28T13:19:36;102157.22;;;7.13;73.71
70909;BME280;58554;52.006;5.926;2023-01-28T13:22:12;102144.22;;;7.05;72.93
70909;BME280;58554;52.006;5.926;2023-01-28T13:24:52;102144.66;;;6.83;71.91
70909;BME280;58554;52.006;5.926;2023-01-28T13:27:23;102124.03;;;6.60;71.46
70909;BME280;58554;52.006;5.926;2023-01-28T13:30:04;102112.38;;;6.28;71.86